sensor_id;sensor_type;location;lat;lon;timestamp;P1;durP1;ratioP1;P2;durP2;ratioP2
51515;SDS011;37603;55.614;37.326;2024-02-26T00:05:36;6.3;;;3.8;;
51515;SDS011;37603;55.614;37.326;2024-02-26T00:11:35;7.5;;;3.9;;
51515;SDS011;37603;55.614;37.326;2024-02-26T00:17:34;5.9;;;3.8;;
51515;SDS011;37603;55.614;37.326;2024-02-26T00:23:32;5.7;;;3.6;;
51515;SDS011;37603;55.614;37.326;2024-02-26T00:29:31;6.0;;;3.8;;
51515;SDS011;37603;55.614;37.326;2024-02-26T00:35:30;5.8;;;3.7;;
51515;SDS011;37603;55.614;37.326;2024-02-26T00:41:28;5.1;;;3.7;;
51515;SDS011;37603;55.614;37.326;2024-02-26T00:47:27;5.6;;;3.6;;
51515;SDS011;37603;55.614;37.326;2024-02-26T00:53:26;6.6;;;3.5;;
51515;SDS011;37603;55.614;37.326;2024-02-26T00:59:24;7.1;;;3.7;;
51515;SDS011;37603;55.614;37.326;2024-02-26T01:05:23;5.1;;;3.2;;
51515;SDS011;37603;55.614;37.326;2024-02-26T01:11:22;6.1;;;3.4;;
51515;SDS011;37603;55.614;37.326;2024-02-26T01:17:20;5.5;;;3.3;;
51515;SDS011;37603;55.614;37.326;2024-02-26T01:23:19;5.9;;;3.6;;
51515;SDS011;37603;55.614;37.326;2024-02-26T01:29:18;3.8;;;3.0;;
51515;SDS011;37603;55.614;37.326;2024-02-26T01:35:17;4.3;;;3.1;;
51515;SDS011;37603;55.614;37.326;2024-02-26T01:41:15;5.5;;;3.4;;
51515;SDS011;37603;55.614;37.326;2024-02-26T01:47:14;6.8;;;3.2;;
51515;SDS011;37603;55.614;37.326;2024-02-26T01:53:13;4.7;;;3.0;;
51515;SDS011;37603;55.614;37.326;2024-02-26T01:59:11;5.7;;;3.2;;
51515;SDS011;37603;55.614;37.326;2024-02-26T02:05:10;3.0;;;1.6;;
51515;SDS011;37603;55.614;37.326;2024-02-26T02:11:10;3.3;;;1.7;;
51515;SDS011;37603;55.614;37.326;2024-02-26T02:17:07;4.8;;;3.0;;
51515;SDS011;37603;55.614;37.326;2024-02-26T02:23:06;5.3;;;3.1;;
51515;SDS011;37603;55.614;37.326;2024-02-26T02:29:05;5.1;;;3.0;;
51515;SDS011;37603;55.614;37.326;2024-02-26T02:35:04;4.6;;;2.7;;
51515;SDS011;37603;55.614;37.326;2024-02-26T02:41:02;4.8;;;2.7;;
51515;SDS011;37603;55.614;37.326;2024-02-26T02:47:01;4.6;;;2.3;;
51515;SDS011;37603;55.614;37.326;2024-02-26T02:53:00;2.6;;;1.3;;
51515;SDS011;37603;55.614;37.326;2024-02-26T02:58:58;4.3;;;2.9;;
51515;SDS011;37603;55.614;37.326;2024-02-26T03:10:58;4.0;;;2.5;;
51515;SDS011;37603;55.614;37.326;2024-02-26T03:16:54;4.7;;;2.3;;
51515;SDS011;37603;55.614;37.326;2024-02-26T03:22:53;4.0;;;2.4;;
51515;SDS011;37603;55.614;37.326;2024-02-26T03:28:52;4.8;;;2.6;;
51515;SDS011;37603;55.614;37.326;2024-02-26T03:34:50;3.9;;;2.3;;
51515;SDS011;37603;55.614;37.326;2024-02-26T03:40:49;4.6;;;2.4;;
51515;SDS011;37603;55.614;37.326;2024-02-26T03:46:48;4.4;;;2.5;;
51515;SDS011;37603;55.614;37.326;2024-02-26T03:52:46;4.9;;;2.4;;
51515;SDS011;37603;55.614;37.326;2024-02-26T03:58:45;4.8;;;2.6;;
51515;SDS011;37603;55.614;37.326;2024-02-26T04:04:44;4.5;;;2.7;;
51515;SDS011;37603;55.614;37.326;2024-02-26T04:10:43;3.3;;;2.4;;
51515;SDS011;37603;55.614;37.326;2024-02-26T04:16:41;4.2;;;2.8;;
51515;SDS011;37603;55.614;37.326;2024-02-26T04:22:40;5.2;;;2.8;;
51515;SDS011;37603;55.614;37.326;2024-02-26T04:28:39;4.6;;;2.7;;
51515;SDS011;37603;55.614;37.326;2024-02-26T04:34:37;4.8;;;2.9;;
51515;SDS011;37603;55.614;37.326;2024-02-26T04:40:36;5.3;;;3.0;;
51515;SDS011;37603;55.614;37.326;2024-02-26T04:46:35;4.1;;;1.5;;
51515;SDS011;37603;55.614;37.326;2024-02-26T04:52:33;4.3;;;1.5;;
51515;SDS011;37603;55.614;37.326;2024-02-26T04:58:32;6.4;;;3.3;;
51515;SDS011;37603;55.614;37.326;2024-02-26T05:04:31;6.9;;;1.7;;
51515;SDS011;37603;55.614;37.326;2024-02-26T05:10:29;7.3;;;3.7;;
51515;SDS011;37603;55.614;37.326;2024-02-26T05:16:28;4.4;;;2.0;;
51515;SDS011;37603;55.614;37.326;2024-02-26T05:22:27;8.4;;;3.6;;
51515;SDS011;37603;55.614;37.326;2024-02-26T05:28:25;7.1;;;4.0;;
51515;SDS011;37603;55.614;37.326;2024-02-26T05:34:24;7.8;;;4.5;;
51515;SDS011;37603;55.614;37.326;2024-02-26T05:40:23;7.6;;;4.3;;
51515;SDS011;37603;55.614;37.326;2024-02-26T05:46:22;7.5;;;4.5;;
51515;SDS011;37603;55.614;37.326;2024-02-26T05:52:20;6.9;;;4.6;;
51515;SDS011;37603;55.614;37.326;2024-02-26T05:58:19;8.1;;;4.9;;
51515;SDS011;37603;55.614;37.326;2024-02-26T06:04:17;7.1;;;4.6;;
51515;SDS011;37603;55.614;37.326;2024-02-26T06:10:16;7.7;;;4.6;;
51515;SDS011;37603;55.614;37.326;2024-02-26T06:16:15;7.9;;;4.9;;
51515;SDS011;37603;55.614;37.326;2024-02-26T06:28:12;6.7;;;2.5;;
51515;SDS011;37603;55.614;37.326;2024-02-26T06:34:11;8.1;;;5.1;;
51515;SDS011;37603;55.614;37.326;2024-02-26T06:40:10;7.5;;;4.7;;
51515;SDS011;37603;55.614;37.326;2024-02-26T06:46:08;7.9;;;4.8;;
51515;SDS011;37603;55.614;37.326;2024-02-26T06:52:07;7.3;;;4.7;;
51515;SDS011;37603;55.614;37.326;2024-02-26T06:58:06;9.2;;;5.2;;
51515;SDS011;37603;55.614;37.326;2024-02-26T07:04:04;10.3;;;5.2;;
51515;SDS011;37603;55.614;37.326;2024-02-26T07:55:13;unknown;;;unknown;;
51515;SDS011;37603;55.614;37.326;2024-02-26T07:55:35;6.6;;;2.6;;
51515;SDS011;37603;55.614;37.326;2024-02-26T08:01:34;4.8;;;2.6;;
51515;SDS011;37603;55.614;37.326;2024-02-26T08:07:33;6.8;;;2.6;;
51515;SDS011;37603;55.614;37.326;2024-02-26T08:13:31;8.7;;;5.1;;
51515;SDS011;37603;55.614;37.326;2024-02-26T08:19:30;9.0;;;4.9;;
51515;SDS011;37603;55.614;37.326;2024-02-26T08:25:29;7.6;;;5.2;;
51515;SDS011;37603;55.614;37.326;2024-02-26T08:31:28;9.0;;;5.0;;
51515;SDS011;37603;55.614;37.326;2024-02-26T08:37:26;9.7;;;5.3;;
51515;SDS011;37603;55.614;37.326;2024-02-26T08:43:25;7.0;;;4.6;;
51515;SDS011;37603;55.614;37.326;2024-02-26T08:49:24;9.9;;;5.3;;
51515;SDS011;37603;55.614;37.326;2024-02-26T08:55:23;8.2;;;5.3;;
51515;SDS011;37603;55.614;37.326;2024-02-26T09:01:22;7.8;;;4.6;;
51515;SDS011;37603;55.614;37.326;2024-02-26T09:07:20;10.2;;;5.4;;
51515;SDS011;37603;55.614;37.326;2024-02-26T09:13:19;8.1;;;5.1;;
51515;SDS011;37603;55.614;37.326;2024-02-26T09:19:18;11.6;;;5.0;;
51515;SDS011;37603;55.614;37.326;2024-02-26T09:25:17;10.1;;;5.6;;
51515;SDS011;37603;55.614;37.326;2024-02-26T09:31:17;9.3;;;5.5;;
51515;SDS011;37603;55.614;37.326;2024-02-26T09:37:14;7.6;;;4.8;;
51515;SDS011;37603;55.614;37.326;2024-02-26T09:43:14;8.5;;;5.0;;
51515;SDS011;37603;55.614;37.326;2024-02-26T09:49:12;8.9;;;4.9;;
51515;SDS011;37603;55.614;37.326;2024-02-26T09:55:11;8.7;;;4.5;;
51515;SDS011;37603;55.614;37.326;2024-02-26T10:01:10;7.9;;;4.9;;
51515;SDS011;37603;55.614;37.326;2024-02-26T10:07:10;7.2;;;4.6;;
51515;SDS011;37603;55.614;37.326;2024-02-26T10:13:08;9.0;;;4.9;;
51515;SDS011;37603;55.614;37.326;2024-02-26T10:19:06;8.9;;;5.1;;
51515;SDS011;37603;55.614;37.326;2024-02-26T10:25:05;11.5;;;5.3;;
51515;SDS011;37603;55.614;37.326;2024-02-26T10:31:04;9.2;;;4.7;;
51515;SDS011;37603;55.614;37.326;2024-02-26T10:37:03;9.1;;;5.0;;
51515;SDS011;37603;55.614;37.326;2024-02-26T10:43:02;11.6;;;6.0;;
51515;SDS011;37603;55.614;37.326;2024-02-26T10:49:01;8.1;;;5.0;;
51515;SDS011;37603;55.614;37.326;2024-02-26T10:55:00;9.0;;;5.2;;
51515;SDS011;37603;55.614;37.326;2024-02-26T11:01:01;12.3;;;5.1;;
51515;SDS011;37603;55.614;37.326;2024-02-26T11:06:57;9.4;;;5.5;;
51515;SDS011;37603;55.614;37.326;2024-02-26T11:12:56;9.6;;;5.2;;
51515;SDS011;37603;55.614;37.326;2024-02-26T11:18:55;8.0;;;4.9;;
51515;SDS011;37603;55.614;37.326;2024-02-26T11:24:54;10.3;;;5.2;;
51515;SDS011;37603;55.614;37.326;2024-02-26T11:30:53;8.3;;;4.7;;
51515;SDS011;37603;55.614;37.326;2024-02-26T11:36:52;11.5;;;5.9;;
51515;SDS011;37603;55.614;37.326;2024-02-26T11:42:51;10.7;;;5.8;;
51515;SDS011;37603;55.614;37.326;2024-02-26T11:48:49;8.7;;;5.0;;
51515;SDS011;37603;55.614;37.326;2024-02-26T11:54:49;8.6;;;5.5;;
51515;SDS011;37603;55.614;37.326;2024-02-26T12:00:47;10.9;;;5.5;;
51515;SDS011;37603;55.614;37.326;2024-02-26T12:06:49;12.2;;;5.4;;
51515;SDS011;37603;55.614;37.326;2024-02-26T12:12:45;10.7;;;5.2;;
51515;SDS011;37603;55.614;37.326;2024-02-26T12:18:44;9.3;;;5.1;;
51515;SDS011;37603;55.614;37.326;2024-02-26T12:24:43;11.7;;;5.1;;
51515;SDS011;37603;55.614;37.326;2024-02-26T12:30:41;10.7;;;5.2;;
51515;SDS011;37603;55.614;37.326;2024-02-26T12:36:40;10.9;;;5.6;;
51515;SDS011;37603;55.614;37.326;2024-02-26T12:42:39;10.6;;;5.4;;
51515;SDS011;37603;55.614;37.326;2024-02-26T12:48:38;11.0;;;5.2;;
51515;SDS011;37603;55.614;37.326;2024-02-26T12:54:37;8.4;;;5.3;;
51515;SDS011;37603;55.614;37.326;2024-02-26T13:00:36;14.4;;;5.4;;
51515;SDS011;37603;55.614;37.326;2024-02-26T13:06:34;10.5;;;5.3;;
51515;SDS011;37603;55.614;37.326;2024-02-26T13:12:33;13.7;;;5.4;;
51515;SDS011;37603;55.614;37.326;2024-02-26T13:18:32;9.1;;;4.8;;
51515;SDS011;37603;55.614;37.326;2024-02-26T13:24:31;10.2;;;4.9;;
51515;SDS011;37603;55.614;37.326;2024-02-26T13:30:30;7.7;;;4.6;;
51515;SDS011;37603;55.614;37.326;2024-02-26T13:36:29;9.5;;;4.5;;
51515;SDS011;37603;55.614;37.326;2024-02-26T13:42:28;7.8;;;4.7;;
51515;SDS011;37603;55.614;37.326;2024-02-26T13:48:26;9.9;;;4.7;;
51515;SDS011;37603;55.614;37.326;2024-02-26T13:54:25;8.6;;;4.5;;
51515;SDS011;37603;55.614;37.326;2024-02-26T14:00:24;9.2;;;4.6;;
51515;SDS011;37603;55.614;37.326;2024-02-26T14:06:23;7.9;;;4.1;;
51515;SDS011;37603;55.614;37.326;2024-02-26T14:12:22;6.0;;;3.5;;
51515;SDS011;37603;55.614;37.326;2024-02-26T14:18:21;10.5;;;4.4;;
51515;SDS011;37603;55.614;37.326;2024-02-26T14:24:19;8.2;;;3.9;;
51515;SDS011;37603;55.614;37.326;2024-02-26T14:30:18;8.4;;;4.2;;
51515;SDS011;37603;55.614;37.326;2024-02-26T14:36:17;8.7;;;4.0;;
51515;SDS011;37603;55.614;37.326;2024-02-26T14:42:16;5.7;;;3.9;;
51515;SDS011;37603;55.614;37.326;2024-02-26T14:48:15;7.3;;;4.0;;
51515;SDS011;37603;55.614;37.326;2024-02-26T15:00:13;6.7;;;4.0;;
51515;SDS011;37603;55.614;37.326;2024-02-26T15:06:11;8.4;;;3.8;;
51515;SDS011;37603;55.614;37.326;2024-02-26T15:12:10;8.6;;;4.2;;
51515;SDS011;37603;55.614;37.326;2024-02-26T15:18:09;8.0;;;4.2;;
51515;SDS011;37603;55.614;37.326;2024-02-26T15:24:07;8.9;;;4.4;;
51515;SDS011;37603;55.614;37.326;2024-02-26T15:30:07;8.0;;;4.5;;
51515;SDS011;37603;55.614;37.326;2024-02-26T15:36:05;7.0;;;3.9;;
51515;SDS011;37603;55.614;37.326;2024-02-26T15:42:04;6.1;;;4.1;;
51515;SDS011;37603;55.614;37.326;2024-02-26T15:48:02;5.5;;;3.8;;
51515;SDS011;37603;55.614;37.326;2024-02-26T15:54:01;7.7;;;3.8;;
51515;SDS011;37603;55.614;37.326;2024-02-26T16:00:00;8.8;;;4.2;;
51515;SDS011;37603;55.614;37.326;2024-02-26T16:05:59;6.8;;;3.7;;
51515;SDS011;37603;55.614;37.326;2024-02-26T16:11:58;6.3;;;4.2;;
51515;SDS011;37603;55.614;37.326;2024-02-26T16:17:56;6.1;;;3.7;;
51515;SDS011;37603;55.614;37.326;2024-02-26T16:23:55;7.0;;;3.9;;
51515;SDS011;37603;55.614;37.326;2024-02-26T16:29:54;7.5;;;3.9;;
51515;SDS011;37603;55.614;37.326;2024-02-26T16:35:52;7.6;;;4.2;;
51515;SDS011;37603;55.614;37.326;2024-02-26T16:41:51;8.4;;;4.1;;
51515;SDS011;37603;55.614;37.326;2024-02-26T16:47:50;7.1;;;4.3;;
51515;SDS011;37603;55.614;37.326;2024-02-26T16:53:49;6.4;;;4.1;;
51515;SDS011;37603;55.614;37.326;2024-02-26T16:59:47;8.0;;;4.4;;
51515;SDS011;37603;55.614;37.326;2024-02-26T17:05:46;7.8;;;4.5;;
51515;SDS011;37603;55.614;37.326;2024-02-26T17:11:45;8.9;;;2.7;;
51515;SDS011;37603;55.614;37.326;2024-02-26T17:17:44;9.6;;;4.2;;
51515;SDS011;37603;55.614;37.326;2024-02-26T17:23:42;9.4;;;3.5;;
51515;SDS011;37603;55.614;37.326;2024-02-26T17:29:41;8.3;;;4.3;;
51515;SDS011;37603;55.614;37.326;2024-02-26T17:35:40;6.7;;;2.8;;
51515;SDS011;37603;55.614;37.326;2024-02-26T17:41:38;10.6;;;4.6;;
51515;SDS011;37603;55.614;37.326;2024-02-26T17:47:37;6.1;;;2.4;;
51515;SDS011;37603;55.614;37.326;2024-02-26T17:53:36;7.9;;;2.8;;
51515;SDS011;37603;55.614;37.326;2024-02-26T17:59:35;7.0;;;4.9;;
51515;SDS011;37603;55.614;37.326;2024-02-26T18:05:33;8.0;;;4.7;;
51515;SDS011;37603;55.614;37.326;2024-02-26T18:11:32;9.9;;;5.7;;
51515;SDS011;37603;55.614;37.326;2024-02-26T18:17:31;8.9;;;5.3;;
51515;SDS011;37603;55.614;37.326;2024-02-26T18:23:29;8.5;;;4.6;;
51515;SDS011;37603;55.614;37.326;2024-02-26T18:29:28;7.6;;;4.9;;
51515;SDS011;37603;55.614;37.326;2024-02-26T18:35:27;4.4;;;2.5;;
51515;SDS011;37603;55.614;37.326;2024-02-26T18:41:26;5.4;;;2.5;;
51515;SDS011;37603;55.614;37.326;2024-02-26T18:47:25;9.7;;;4.8;;
51515;SDS011;37603;55.614;37.326;2024-02-26T18:53:23;8.9;;;5.3;;
51515;SDS011;37603;55.614;37.326;2024-02-26T18:59:22;8.0;;;2.5;;
51515;SDS011;37603;55.614;37.326;2024-02-26T19:05:20;8.5;;;5.1;;
51515;SDS011;37603;55.614;37.326;2024-02-26T19:11:19;10.9;;;5.2;;
51515;SDS011;37603;55.614;37.326;2024-02-26T19:17:18;7.6;;;5.1;;
51515;SDS011;37603;55.614;37.326;2024-02-26T19:23:16;6.6;;;2.9;;
51515;SDS011;37603;55.614;37.326;2024-02-26T19:29:15;9.0;;;5.0;;
51515;SDS011;37603;55.614;37.326;2024-02-26T19:35:14;7.5;;;4.8;;
51515;SDS011;37603;55.614;37.326;2024-02-26T19:41:13;10.0;;;5.2;;
51515;SDS011;37603;55.614;37.326;2024-02-26T19:47:11;9.3;;;2.9;;
51515;SDS011;37603;55.614;37.326;2024-02-26T19:53:10;7.3;;;4.5;;
51515;SDS011;37603;55.614;37.326;2024-02-26T19:59:09;6.1;;;2.5;;
51515;SDS011;37603;55.614;37.326;2024-02-26T20:05:08;6.9;;;2.6;;
51515;SDS011;37603;55.614;37.326;2024-02-26T20:11:06;5.2;;;2.5;;
51515;SDS011;37603;55.614;37.326;2024-02-26T20:17:05;7.9;;;4.6;;
51515;SDS011;37603;55.614;37.326;2024-02-26T20:23:04;5.1;;;2.5;;
51515;SDS011;37603;55.614;37.326;2024-02-26T20:29:02;6.4;;;2.8;;
51515;SDS011;37603;55.614;37.326;2024-02-26T20:35:01;4.4;;;2.3;;
51515;SDS011;37603;55.614;37.326;2024-02-26T20:41:00;6.5;;;2.6;;
51515;SDS011;37603;55.614;37.326;2024-02-26T20:46:58;8.5;;;5.0;;
51515;SDS011;37603;55.614;37.326;2024-02-26T20:52:57;8.1;;;2.5;;
51515;SDS011;37603;55.614;37.326;2024-02-26T20:58:56;8.5;;;4.8;;
51515;SDS011;37603;55.614;37.326;2024-02-26T21:04:55;7.7;;;5.1;;
51515;SDS011;37603;55.614;37.326;2024-02-26T21:10:53;6.6;;;2.8;;
51515;SDS011;37603;55.614;37.326;2024-02-26T21:16:52;7.2;;;2.9;;
51515;SDS011;37603;55.614;37.326;2024-02-26T21:22:51;6.6;;;2.4;;
51515;SDS011;37603;55.614;37.326;2024-02-26T21:28:49;9.8;;;5.4;;
51515;SDS011;37603;55.614;37.326;2024-02-26T21:34:48;8.1;;;3.2;;
51515;SDS011;37603;55.614;37.326;2024-02-26T21:40:47;9.0;;;2.9;;
51515;SDS011;37603;55.614;37.326;2024-02-26T21:46:45;6.8;;;3.1;;
51515;SDS011;37603;55.614;37.326;2024-02-26T21:52:44;6.9;;;2.8;;
51515;SDS011;37603;55.614;37.326;2024-02-26T21:58:43;9.4;;;5.5;;
51515;SDS011;37603;55.614;37.326;2024-02-26T22:04:41;10.3;;;5.8;;
51515;SDS011;37603;55.614;37.326;2024-02-26T22:10:40;8.3;;;3.6;;
51515;SDS011;37603;55.614;37.326;2024-02-26T22:16:39;9.4;;;3.0;;
51515;SDS011;37603;55.614;37.326;2024-02-26T22:22:37;6.6;;;3.4;;
51515;SDS011;37603;55.614;37.326;2024-02-26T22:28:36;10.3;;;3.2;;
51515;SDS011;37603;55.614;37.326;2024-02-26T22:34:35;7.3;;;2.9;;
51515;SDS011;37603;55.614;37.326;2024-02-26T22:40:33;10.1;;;3.3;;
51515;SDS011;37603;55.614;37.326;2024-02-26T22:46:32;7.9;;;3.1;;
51515;SDS011;37603;55.614;37.326;2024-02-26T22:52:31;7.5;;;3.8;;
51515;SDS011;37603;55.614;37.326;2024-02-26T22:58:29;9.5;;;6.3;;
51515;SDS011;37603;55.614;37.326;2024-02-26T23:04:28;9.0;;;3.7;;
51515;SDS011;37603;55.614;37.326;2024-02-26T23:10:27;7.8;;;3.1;;
51515;SDS011;37603;55.614;37.326;2024-02-26T23:16:25;8.5;;;3.2;;
51515;SDS011;37603;55.614;37.326;2024-02-26T23:22:24;9.5;;;3.0;;
51515;SDS011;37603;55.614;37.326;2024-02-26T23:28:23;8.8;;;3.5;;
51515;SDS011;37603;55.614;37.326;2024-02-26T23:34:21;8.5;;;3.6;;
51515;SDS011;37603;55.614;37.326;2024-02-26T23:40:20;10.9;;;3.9;;
51515;SDS011;37603;55.614;37.326;2024-02-26T23:46:19;6.1;;;2.8;;
51515;SDS011;37603;55.614;37.326;2024-02-26T23:52:17;5.0;;;3.0;;
51515;SDS011;37603;55.614;37.326;2024-02-26T23:58:16;8.6;;;3.7;;
